This is the latest recevied weather packets stored in our database for station/object S54MI-13. If no packets are shown the sender has not sent any weather packets the latest 10 day(s).
| Time | Temp. | Humidity | Pressure | Rain* | Wind** | Luminosity | Snow |
|---|---|---|---|---|---|---|---|
| 1777711466 | 18.89° C | 42% | - | - | - | 704 W/m² | - |
| 1777709322 | 20° C | 45% | - | - | - | 594 W/m² | - |
| 1777708604 | 18.89° C | 48% | - | - | - | 594 W/m² | - |
| 1777706424 | 16.67° C | 50% | - | - | - | 505 W/m² | - |
| 1777703542 | 14.44° C | 51% | - | - | - | 317 W/m² | - |
| 1777701381 | 12.78° C | 50% | - | - | - | 220 W/m² | - |
| 1777693455 | 11.67° C | 49% | - | - | - | 0 W/m² | - |
| 1777679070 | 11.67° C | 52% | - | - | - | 0 W/m² | - |
| 1777668990 | 11.11° C | 56% | - | - | - | 0 W/m² | - |
| 1777666137 | 11.67° C | 55% | - | - | - | 0 W/m² | - |
| 1777651699 | 18.89° C | 30% | - | - | - | 441 W/m² | - |
| 1777646659 | 18.89° C | 29% | - | - | - | 650 W/m² | - |
| 1777644503 | 18.89° C | 30% | - | - | - | 770 W/m² | - |
| 1777637308 | 18.33° C | 30% | - | - | - | 928 W/m² | - |
| 1777636577 | 18.33° C | 30% | - | - | - | 928 W/m² | - |
| 1777632986 | 17.78° C | 31% | - | - | - | 928 W/m² | - |
| 1777632268 | 17.78° C | 31% | - | - | - | 918 W/m² | - |
| 1777631539 | 17.78° C | 30% | - | - | - | 899 W/m² | - |
| 1777630819 | 17.78° C | 30% | - | - | - | 899 W/m² | - |
| 1777627228 | 17.78° C | 30% | - | - | - | 816 W/m² | - |
| 1777622896 | 15.56° C | 31% | - | - | - | 605 W/m² | - |
| 1777620760 | 13.33° C | 32% | - | - | - | 515 W/m² | - |
| 1777618587 | 11.67° C | 33% | - | - | - | 412 W/m² | - |
| 1777617136 | 10.56° C | 33% | - | - | - | 319 W/m² | - |
| 1777614263 | 8.33° C | 33% | - | - | - | 169 W/m² | - |
* Rain since midnight (hover to see other rain measurements)
** Current wind speed in m/s (hover to see current wind gust speed)